VKG462 LCLK-ESOE
Flight info
| Callsign | VKG462 |
|---|---|
| Flight time | 4h 17m |
| Altitude | 34000 |
| Route | PHA DCT DASNI M855 TOMBI/N0431F280 M855 AYT/N0458F340 UM855 EKSEN UL610 IST DCT IBLAX P727 BGS DCT RONBU DCT MOBRA DCT KARIL DCT KENIN DCT LENOV N133 GOSAK/N0446F360 N133 PENOR DCT ABAMA |
| Aircraft | A321/M-SDE2E3FGHIJ1RWXYZ/LB2 |
Departure
| Time | 2026-05-04 09:29 |
|---|---|
| Airport | Larnaca International Airport (LCLK) |
Arrival
| Time | 2026-05-04 13:46 |
|---|---|
| Airport | Örebro Airport (ESOE) |
| Time | Latitude | Longitude | Altitude | Speed | Heading |
|---|---|---|---|---|---|
| 2026-05-04 08:52 | 34.86907 | 33.60894 | 23 ft | 0 kts | 45° |
| 2026-05-04 09:04 | 34.86907 | 33.60893 | 20 ft | 0 kts | 45° |
| 2026-05-04 09:04 | 34.86907 | 33.60894 | 20 ft | 0 kts | 45° |
| 2026-05-04 09:04 | 34.86907 | 33.60893 | 20 ft | 0 kts | 45° |
| 2026-05-04 09:04 | 34.86907 | 33.60894 | 20 ft | 0 kts | 45° |
| 2026-05-04 09:05 | 34.86907 | 33.60893 | 20 ft | 0 kts | 45° |
| 2026-05-04 09:05 | 34.86907 | 33.60894 | 20 ft | 0 kts | 45° |
| 2026-05-04 09:06 | 34.86907 | 33.60893 | 20 ft | 0 kts | 45° |
| 2026-05-04 09:17 | 34.86873 | 33.60800 | 20 ft | 0 kts | 135° |
| 2026-05-04 09:20 | 34.86863 | 33.60812 | 20 ft | 3 kts | 135° |
| 2026-05-04 09:21 | 34.86841 | 33.60838 | 22 ft | 6 kts | 135° |
| 2026-05-04 09:21 | 34.86808 | 33.60878 | 21 ft | 8 kts | 135° |
| 2026-05-04 09:21 | 34.86764 | 33.60931 | 20 ft | 10 kts | 135° |
| 2026-05-04 09:21 | 34.86707 | 33.61001 | 22 ft | 13 kts | 135° |
| 2026-05-04 09:22 | 34.86647 | 33.61081 | 22 ft | 12 kts | 118° |
| 2026-05-04 09:22 | 34.86668 | 33.61167 | 21 ft | 12 kts | 47° |
| 2026-05-04 09:22 | 34.86747 | 33.61264 | 21 ft | 20 kts | 45° |
| 2026-05-04 09:22 | 34.86843 | 33.61381 | 18 ft | 18 kts | 45° |
| 2026-05-04 09:23 | 34.86927 | 33.61485 | 19 ft | 16 kts | 45° |
| 2026-05-04 09:23 | 34.87004 | 33.61579 | 19 ft | 15 kts | 45° |
| 2026-05-04 09:23 | 34.87089 | 33.61683 | 21 ft | 20 kts | 45° |
| 2026-05-04 09:23 | 34.87199 | 33.61817 | 22 ft | 25 kts | 45° |
| 2026-05-04 09:25 | 34.87893 | 33.62666 | 22 ft | 17 kts | 45° |
| 2026-05-04 09:25 | 34.87985 | 33.62775 | 22 ft | 18 kts | 44° |
| 2026-05-04 09:26 | 34.88070 | 33.62879 | 21 ft | 16 kts | 45° |
| 2026-05-04 09:26 | 34.88146 | 33.62973 | 19 ft | 15 kts | 45° |
| 2026-05-04 09:26 | 34.88221 | 33.63065 | 18 ft | 15 kts | 45° |
| 2026-05-04 09:26 | 34.88289 | 33.63148 | 19 ft | 13 kts | 45° |
| 2026-05-04 09:27 | 34.88350 | 33.63222 | 18 ft | 12 kts | 45° |
| 2026-05-04 09:27 | 34.88408 | 33.63292 | 18 ft | 11 kts | 45° |
| 2026-05-04 09:27 | 34.88442 | 33.63358 | 18 ft | 8 kts | 85° |
| 2026-05-04 09:27 | 34.88425 | 33.63405 | 21 ft | 7 kts | 129° |
| 2026-05-04 09:28 | 34.88386 | 33.63477 | 19 ft | 12 kts | 103° |
| 2026-05-04 09:28 | 34.88351 | 33.63550 | 18 ft | 10 kts | 169° |
| 2026-05-04 09:28 | 34.88267 | 33.63480 | 17 ft | 30 kts | 225° |
| 2026-05-04 09:28 | 34.87952 | 33.63096 | 21 ft | 93 kts | 225° |
| 2026-05-04 09:29 | 34.87379 | 33.62397 | 17 ft | 140 kts | 225° |
| 2026-05-04 09:29 | 34.86637 | 33.61472 | 339 ft | 153 kts | 228° |
| 2026-05-04 09:29 | 34.85912 | 33.60547 | 1027 ft | 150 kts | 228° |
| 2026-05-04 09:29 | 34.85198 | 33.59618 | 1632 ft | 150 kts | 230° |
| 2026-05-04 09:30 | 34.84465 | 33.58661 | 1935 ft | 163 kts | 232° |
| 2026-05-04 09:30 | 34.83639 | 33.57578 | 2093 ft | 185 kts | 232° |
| 2026-05-04 09:30 | 34.82714 | 33.56370 | 2241 ft | 205 kts | 231° |
| 2026-05-04 09:30 | 34.81680 | 33.55027 | 2370 ft | 230 kts | 230° |
| 2026-05-04 09:31 | 34.80538 | 33.53558 | 2783 ft | 245 kts | 230° |
| 2026-05-04 09:31 | 34.79352 | 33.52042 | 3489 ft | 249 kts | 230° |
| 2026-05-04 09:31 | 34.78161 | 33.50526 | 4322 ft | 245 kts | 231° |
| 2026-05-04 09:31 | 34.76986 | 33.49037 | 5127 ft | 244 kts | 231° |
| 2026-05-04 09:32 | 34.75813 | 33.47541 | 5847 ft | 245 kts | 231° |
| 2026-05-04 09:32 | 34.74632 | 33.46031 | 6573 ft | 247 kts | 231° |
| 2026-05-04 09:34 | 34.68019 | 33.33863 | 11991 ft | 264 kts | 271° |
| 2026-05-04 09:34 | 34.68102 | 33.31573 | 12205 ft | 286 kts | 272° |
| 2026-05-04 09:34 | 34.68210 | 33.29065 | 12344 ft | 308 kts | 272° |
| 2026-05-04 09:34 | 34.68328 | 33.26417 | 12676 ft | 318 kts | 273° |
| 2026-05-04 09:35 | 34.68448 | 33.23711 | 13220 ft | 322 kts | 273° |
| 2026-05-04 09:35 | 34.68565 | 33.20984 | 13804 ft | 325 kts | 273° |
| 2026-05-04 09:35 | 34.68680 | 33.18232 | 14331 ft | 327 kts | 273° |
| 2026-05-04 09:35 | 34.68791 | 33.15466 | 14887 ft | 329 kts | 273° |
| 2026-05-04 09:37 | 34.69554 | 32.95643 | 18475 ft | 343 kts | 273° |
| 2026-05-04 09:37 | 34.69662 | 32.92738 | 18900 ft | 346 kts | 273° |
| 2026-05-04 09:38 | 34.69771 | 32.89812 | 19295 ft | 348 kts | 273° |
| 2026-05-04 09:38 | 34.69883 | 32.86859 | 19673 ft | 352 kts | 274° |
| 2026-05-04 09:38 | 34.69997 | 32.83875 | 20018 ft | 355 kts | 274° |
| 2026-05-04 09:38 | 34.70112 | 32.80858 | 20406 ft | 358 kts | 274° |
| 2026-05-04 09:39 | 34.70224 | 32.77823 | 20803 ft | 361 kts | 274° |
| 2026-05-04 09:39 | 34.70335 | 32.74763 | 21196 ft | 364 kts | 274° |
| 2026-05-04 09:39 | 34.70445 | 32.71684 | 21569 ft | 366 kts | 274° |
| 2026-05-04 09:39 | 34.70555 | 32.68584 | 21955 ft | 369 kts | 274° |
| 2026-05-04 09:40 | 34.70665 | 32.65456 | 22338 ft | 372 kts | 274° |
| 2026-05-04 09:40 | 34.70772 | 32.62311 | 22697 ft | 374 kts | 274° |
| 2026-05-04 09:40 | 34.70881 | 32.59137 | 23043 ft | 377 kts | 274° |
| 2026-05-04 09:40 | 34.70993 | 32.55940 | 23402 ft | 381 kts | 274° |
| 2026-05-04 09:41 | 34.71282 | 32.52744 | 23713 ft | 381 kts | 283° |
| 2026-05-04 09:42 | 34.80884 | 32.33213 | 25854 ft | 392 kts | 302° |
| 2026-05-04 09:43 | 34.82419 | 32.30450 | 26128 ft | 395 kts | 302° |
| 2026-05-04 09:43 | 34.83958 | 32.27676 | 26438 ft | 397 kts | 302° |
| 2026-05-04 09:43 | 34.85502 | 32.24891 | 26733 ft | 398 kts | 302° |
| 2026-05-04 09:43 | 34.87053 | 32.22090 | 27015 ft | 399 kts | 302° |
| 2026-05-04 09:44 | 34.88610 | 32.19282 | 27291 ft | 401 kts | 302° |
| 2026-05-04 09:44 | 34.90172 | 32.16461 | 27560 ft | 403 kts | 302° |
| 2026-05-04 09:44 | 34.91742 | 32.13625 | 27820 ft | 404 kts | 302° |
| 2026-05-04 09:46 | 35.02882 | 31.93466 | 29613 ft | 414 kts | 301° |
| 2026-05-04 09:46 | 35.04482 | 31.90556 | 29954 ft | 413 kts | 301° |
| 2026-05-04 09:46 | 35.06083 | 31.87650 | 30239 ft | 412 kts | 301° |
| 2026-05-04 09:47 | 35.07678 | 31.84750 | 30506 ft | 412 kts | 301° |
| 2026-05-04 09:47 | 35.09272 | 31.81844 | 30774 ft | 412 kts | 302° |
| 2026-05-04 09:49 | 35.20457 | 31.61405 | 32415 ft | 414 kts | 302° |
| 2026-05-04 09:49 | 35.22052 | 31.58471 | 32667 ft | 414 kts | 301° |
| 2026-05-04 09:49 | 35.23644 | 31.55544 | 32909 ft | 414 kts | 301° |
| 2026-05-04 09:51 | 35.33158 | 31.38036 | 33898 ft | 410 kts | 301° |
| 2026-05-04 09:51 | 35.36300 | 31.32219 | 33904 ft | 409 kts | 301° |
| 2026-05-04 09:52 | 35.39438 | 31.26410 | 33901 ft | 409 kts | 301° |
| 2026-05-04 09:52 | 35.42580 | 31.20599 | 33905 ft | 408 kts | 301° |
| 2026-05-04 09:53 | 35.45716 | 31.14793 | 33902 ft | 408 kts | 301° |
| 2026-05-04 09:53 | 35.48836 | 31.08980 | 33897 ft | 408 kts | 301° |
| 2026-05-04 09:54 | 35.51956 | 31.03159 | 33894 ft | 408 kts | 301° |
| 2026-05-04 09:54 | 35.55077 | 30.97336 | 33920 ft | 408 kts | 302° |
| 2026-05-04 09:55 | 35.58221 | 30.91514 | 33882 ft | 410 kts | 306° |
| 2026-05-04 09:55 | 35.62455 | 30.86819 | 33879 ft | 417 kts | 328° |
| 2026-05-04 09:55 | 35.65118 | 30.85368 | 33877 ft | 423 kts | 339° |
| 2026-05-04 09:56 | 35.68018 | 30.84634 | 33882 ft | 430 kts | 351° |
| 2026-05-04 09:56 | 35.74018 | 30.84254 | 33880 ft | 433 kts | 352° |
| 2026-05-04 09:57 | 35.80038 | 30.83899 | 33893 ft | 433 kts | 352° |
| 2026-05-04 09:57 | 35.86065 | 30.83542 | 33906 ft | 433 kts | 353° |
| 2026-05-04 09:58 | 35.92042 | 30.83179 | 33907 ft | 433 kts | 353° |
| 2026-05-04 09:58 | 35.98053 | 30.82811 | 33902 ft | 432 kts | 353° |
| 2026-05-04 10:00 | 36.22124 | 30.81851 | 33900 ft | 433 kts | 354° |
| 2026-05-04 10:04 | 36.64345 | 30.80413 | 33875 ft | 434 kts | 355° |
| 2026-05-04 10:04 | 36.70382 | 30.80204 | 33892 ft | 433 kts | 356° |
| 2026-05-04 10:05 | 36.76404 | 30.79997 | 33888 ft | 432 kts | 356° |
| 2026-05-04 10:05 | 36.82364 | 30.79786 | 33886 ft | 431 kts | 356° |
| 2026-05-04 10:06 | 36.88357 | 30.79580 | 33895 ft | 430 kts | 356° |
| 2026-05-04 10:06 | 36.94335 | 30.79303 | 33895 ft | 429 kts | 354° |
| 2026-05-04 10:08 | 37.14017 | 30.76693 | 33892 ft | 425 kts | 353° |
| 2026-05-04 10:08 | 37.19858 | 30.75985 | 33887 ft | 424 kts | 353° |
| 2026-05-04 10:09 | 37.25730 | 30.75260 | 33885 ft | 424 kts | 353° |
| 2026-05-04 10:09 | 37.31596 | 30.74531 | 33894 ft | 424 kts | 353° |
| 2026-05-04 10:10 | 37.37449 | 30.73807 | 33909 ft | 422 kts | 353° |
| 2026-05-04 10:10 | 37.43280 | 30.73061 | 33906 ft | 420 kts | 352° |
| 2026-05-04 10:11 | 37.49088 | 30.72221 | 33915 ft | 420 kts | 352° |
| 2026-05-04 10:11 | 37.54884 | 30.71346 | 33926 ft | 419 kts | 352° |
| 2026-05-04 10:12 | 37.60677 | 30.70501 | 33921 ft | 419 kts | 352° |
| 2026-05-04 10:12 | 37.66474 | 30.69778 | 33930 ft | 419 kts | 353° |
| 2026-05-04 10:13 | 37.72271 | 30.69102 | 33937 ft | 418 kts | 353° |
| 2026-05-04 10:13 | 37.78059 | 30.68406 | 33936 ft | 418 kts | 353° |
| 2026-05-04 10:14 | 37.83808 | 30.67690 | 33936 ft | 418 kts | 353° |
| 2026-05-04 10:16 | 38.02845 | 30.59493 | 33925 ft | 416 kts | 337° |
| 2026-05-04 10:16 | 38.05508 | 30.58037 | 33926 ft | 417 kts | 337° |
| 2026-05-04 10:16 | 38.10838 | 30.55119 | 33933 ft | 417 kts | 337° |
| 2026-05-04 10:17 | 38.16161 | 30.52191 | 33935 ft | 417 kts | 337° |
| 2026-05-04 10:19 | 38.37497 | 30.40440 | 33950 ft | 418 kts | 337° |
| 2026-05-04 10:19 | 38.42840 | 30.37480 | 33943 ft | 419 kts | 338° |
| 2026-05-04 10:20 | 38.48188 | 30.34515 | 33943 ft | 420 kts | 338° |
| 2026-05-04 10:20 | 38.53553 | 30.31541 | 33942 ft | 421 kts | 338° |
| 2026-05-04 10:21 | 38.58935 | 30.28554 | 33949 ft | 422 kts | 337° |
| 2026-05-04 10:21 | 38.64323 | 30.25551 | 33954 ft | 422 kts | 337° |
| 2026-05-04 10:22 | 38.72411 | 30.21054 | 33955 ft | 423 kts | 338° |
| 2026-05-04 10:23 | 38.77814 | 30.18053 | 33957 ft | 423 kts | 338° |
| 2026-05-04 10:25 | 38.99382 | 30.05943 | 33951 ft | 425 kts | 338° |
| 2026-05-04 10:25 | 39.04797 | 30.02878 | 33955 ft | 426 kts | 338° |
| 2026-05-04 10:26 | 39.10231 | 29.99817 | 33956 ft | 427 kts | 338° |
| 2026-05-04 10:26 | 39.15671 | 29.96758 | 33966 ft | 426 kts | 338° |
| 2026-05-04 10:27 | 39.21110 | 29.93690 | 33959 ft | 427 kts | 338° |
| 2026-05-04 10:27 | 39.26550 | 29.90613 | 33962 ft | 427 kts | 338° |
| 2026-05-04 10:28 | 39.31998 | 29.87519 | 33970 ft | 427 kts | 338° |
| 2026-05-04 10:28 | 39.37442 | 29.84423 | 33973 ft | 428 kts | 338° |
| 2026-05-04 10:29 | 39.42901 | 29.81350 | 33957 ft | 428 kts | 339° |
| 2026-05-04 10:29 | 39.48383 | 29.78284 | 33966 ft | 430 kts | 338° |
| 2026-05-04 10:30 | 39.53882 | 29.75195 | 33978 ft | 431 kts | 338° |
| 2026-05-04 10:30 | 39.59391 | 29.72095 | 33989 ft | 432 kts | 338° |
| 2026-05-04 10:31 | 39.64900 | 29.68985 | 33987 ft | 432 kts | 338° |
| 2026-05-04 10:32 | 39.84185 | 29.58064 | 33986 ft | 432 kts | 338° |
| 2026-05-04 10:33 | 39.89692 | 29.54936 | 33979 ft | 432 kts | 339° |
| 2026-05-04 10:33 | 39.95195 | 29.51767 | 33984 ft | 433 kts | 339° |
| 2026-05-04 10:34 | 40.00677 | 29.48527 | 33992 ft | 432 kts | 338° |
| 2026-05-04 10:34 | 40.06153 | 29.45285 | 33996 ft | 433 kts | 338° |
| 2026-05-04 10:35 | 40.11644 | 29.42046 | 33993 ft | 433 kts | 338° |
| 2026-05-04 10:35 | 40.17108 | 29.38820 | 33997 ft | 434 kts | 338° |
| 2026-05-04 10:36 | 40.22621 | 29.35561 | 34006 ft | 436 kts | 338° |
| 2026-05-04 10:36 | 40.28155 | 29.32291 | 34007 ft | 437 kts | 338° |
| 2026-05-04 10:37 | 40.33689 | 29.28992 | 34004 ft | 437 kts | 339° |
| 2026-05-04 10:37 | 40.39220 | 29.25691 | 34006 ft | 437 kts | 339° |
| 2026-05-04 10:39 | 40.57971 | 29.12277 | 33950 ft | 442 kts | 332° |
| 2026-05-04 10:40 | 40.63198 | 29.08021 | 33944 ft | 442 kts | 332° |
| 2026-05-04 10:40 | 40.68431 | 29.03763 | 33943 ft | 442 kts | 332° |
| 2026-05-04 10:41 | 40.73663 | 28.99498 | 33937 ft | 442 kts | 332° |
| 2026-05-04 10:41 | 40.78898 | 28.95228 | 33934 ft | 442 kts | 333° |
| 2026-05-04 10:42 | 40.84136 | 28.90945 | 33933 ft | 443 kts | 333° |
| 2026-05-04 10:42 | 40.89378 | 28.86642 | 33950 ft | 444 kts | 333° |
| 2026-05-04 10:43 | 40.94631 | 28.82328 | 33957 ft | 444 kts | 334° |
| 2026-05-04 10:44 | 41.14345 | 28.71865 | 34021 ft | 436 kts | 345° |
| 2026-05-04 10:45 | 41.17178 | 28.70425 | 34021 ft | 436 kts | 344° |
| 2026-05-04 10:45 | 41.22845 | 28.67528 | 34024 ft | 437 kts | 344° |
| 2026-05-04 10:46 | 41.28518 | 28.64635 | 34003 ft | 436 kts | 344° |
| 2026-05-04 10:46 | 41.34169 | 28.61749 | 34034 ft | 434 kts | 344° |
| 2026-05-04 10:47 | 41.39804 | 28.58862 | 34044 ft | 433 kts | 344° |
| 2026-05-04 10:47 | 41.45416 | 28.55983 | 34045 ft | 432 kts | 344° |
| 2026-05-04 10:49 | 41.67826 | 28.44429 | 34031 ft | 432 kts | 345° |
| 2026-05-04 10:50 | 41.73439 | 28.41532 | 34031 ft | 432 kts | 345° |
| 2026-05-04 10:52 | 41.95827 | 28.29525 | 34014 ft | 443 kts | 334° |
| 2026-05-04 10:52 | 41.98337 | 28.27077 | 34017 ft | 450 kts | 323° |
| 2026-05-04 10:52 | 42.00531 | 28.24035 | 34017 ft | 457 kts | 313° |
| 2026-05-04 10:54 | 42.14985 | 27.95466 | 34019 ft | 464 kts | 308° |
| 2026-05-04 10:56 | 42.29504 | 27.75272 | 34012 ft | 446 kts | 337° |
| 2026-05-04 10:56 | 42.32238 | 27.73286 | 34016 ft | 447 kts | 337° |
| 2026-05-04 10:57 | 42.37722 | 27.69278 | 34025 ft | 449 kts | 337° |
| 2026-05-04 10:57 | 42.43209 | 27.65236 | 34033 ft | 450 kts | 337° |
| 2026-05-04 10:58 | 42.48707 | 27.61186 | 34019 ft | 450 kts | 336° |
| 2026-05-04 10:58 | 42.54223 | 27.57120 | 34025 ft | 452 kts | 336° |
| 2026-05-04 10:59 | 42.59760 | 27.53038 | 34034 ft | 453 kts | 337° |
| 2026-05-04 10:59 | 42.65353 | 27.49101 | 34042 ft | 453 kts | 338° |
| 2026-05-04 11:00 | 42.70991 | 27.45266 | 34023 ft | 453 kts | 338° |
| 2026-05-04 11:02 | 42.93581 | 27.29558 | 34030 ft | 457 kts | 337° |
| 2026-05-04 11:05 | 43.36229 | 26.99479 | 34066 ft | 460 kts | 335° |
| 2026-05-04 11:06 | 43.41915 | 26.95435 | 34053 ft | 460 kts | 335° |
| 2026-05-04 11:06 | 43.47602 | 26.91385 | 34055 ft | 460 kts | 335° |
| 2026-05-04 11:10 | 43.87337 | 26.62804 | 34066 ft | 460 kts | 334° |
| 2026-05-04 11:12 | 44.09865 | 26.45946 | 34078 ft | 460 kts | 329° |
| 2026-05-04 11:12 | 44.15207 | 26.41038 | 34078 ft | 460 kts | 327° |
| 2026-05-04 11:13 | 44.20525 | 26.36083 | 34075 ft | 460 kts | 328° |
| 2026-05-04 11:13 | 44.25892 | 26.31229 | 34067 ft | 460 kts | 328° |
| 2026-05-04 11:14 | 44.31275 | 26.26423 | 34073 ft | 459 kts | 328° |
| 2026-05-04 11:16 | 44.52713 | 26.07023 | 34082 ft | 458 kts | 328° |
| 2026-05-04 11:16 | 44.58055 | 26.02162 | 34099 ft | 457 kts | 327° |
| 2026-05-04 11:17 | 44.63383 | 25.97316 | 34103 ft | 456 kts | 327° |
| 2026-05-04 11:19 | 44.84485 | 25.77963 | 34079 ft | 451 kts | 327° |
| 2026-05-04 11:19 | 44.89737 | 25.73114 | 34079 ft | 450 kts | 326° |
| 2026-05-04 11:20 | 44.94979 | 25.68277 | 34075 ft | 450 kts | 326° |
| 2026-05-04 11:20 | 45.00213 | 25.63427 | 34058 ft | 450 kts | 326° |
| 2026-05-04 11:22 | 45.21088 | 25.43985 | 34074 ft | 447 kts | 326° |
| 2026-05-04 11:23 | 45.26278 | 25.39117 | 34067 ft | 447 kts | 325° |
| 2026-05-04 11:25 | 45.44415 | 25.22040 | 34106 ft | 445 kts | 326° |
| 2026-05-04 11:25 | 45.49566 | 25.17162 | 34094 ft | 444 kts | 325° |
| 2026-05-04 11:27 | 45.72686 | 24.95163 | 34092 ft | 444 kts | 327° |
| 2026-05-04 11:28 | 45.77813 | 24.90255 | 34094 ft | 443 kts | 327° |
| 2026-05-04 11:28 | 45.82935 | 24.85330 | 34094 ft | 443 kts | 327° |
| 2026-05-04 11:29 | 45.87950 | 24.80184 | 34085 ft | 444 kts | 322° |
| 2026-05-04 11:29 | 45.92723 | 24.74558 | 34099 ft | 443 kts | 322° |
| 2026-05-04 11:33 | 46.25819 | 24.35284 | 34087 ft | 438 kts | 322° |
| 2026-05-04 11:33 | 46.30481 | 24.29699 | 34095 ft | 438 kts | 322° |
| 2026-05-04 11:34 | 46.35170 | 24.24069 | 34092 ft | 438 kts | 322° |
| 2026-05-04 11:34 | 46.39886 | 24.18384 | 34097 ft | 438 kts | 322° |
| 2026-05-04 11:35 | 46.44571 | 24.12740 | 34128 ft | 438 kts | 322° |
| 2026-05-04 11:35 | 46.49211 | 24.07135 | 34138 ft | 437 kts | 322° |
| 2026-05-04 11:36 | 46.53877 | 24.01474 | 34131 ft | 437 kts | 322° |
| 2026-05-04 11:36 | 46.58535 | 23.95818 | 34129 ft | 436 kts | 322° |
| 2026-05-04 11:37 | 46.63184 | 23.90161 | 34128 ft | 435 kts | 322° |
| 2026-05-04 11:37 | 46.67822 | 23.84490 | 34105 ft | 435 kts | 322° |
| 2026-05-04 11:38 | 46.72457 | 23.78813 | 34092 ft | 435 kts | 322° |
| 2026-05-04 11:38 | 46.77090 | 23.73144 | 34107 ft | 434 kts | 322° |
| 2026-05-04 11:39 | 46.81680 | 23.67509 | 34111 ft | 434 kts | 322° |
| 2026-05-04 11:41 | 46.97807 | 23.47586 | 34130 ft | 433 kts | 322° |
| 2026-05-04 11:41 | 47.02396 | 23.41881 | 34145 ft | 432 kts | 322° |
| 2026-05-04 11:42 | 47.06976 | 23.36191 | 34138 ft | 431 kts | 322° |
| 2026-05-04 11:42 | 47.10774 | 23.31454 | 34143 ft | 431 kts | 322° |
| 2026-05-04 11:43 | 47.15336 | 23.25748 | 34113 ft | 430 kts | 322° |
| 2026-05-04 11:43 | 47.19886 | 23.20037 | 34129 ft | 430 kts | 322° |
| 2026-05-04 11:44 | 47.24436 | 23.14331 | 34132 ft | 429 kts | 322° |
| 2026-05-04 11:44 | 47.28980 | 23.08624 | 34133 ft | 429 kts | 322° |
| 2026-05-04 11:45 | 47.33510 | 23.02900 | 34132 ft | 429 kts | 321° |
| 2026-05-04 11:45 | 47.38045 | 22.97163 | 34130 ft | 429 kts | 321° |
| 2026-05-04 11:46 | 47.42567 | 22.91424 | 34140 ft | 428 kts | 321° |
| 2026-05-04 11:46 | 47.47084 | 22.85680 | 34139 ft | 428 kts | 321° |
| 2026-05-04 11:47 | 47.51590 | 22.79933 | 34140 ft | 428 kts | 321° |
| 2026-05-04 11:47 | 47.56100 | 22.74174 | 34139 ft | 428 kts | 321° |
| 2026-05-04 11:48 | 47.60615 | 22.68411 | 34133 ft | 428 kts | 321° |
| 2026-05-04 11:48 | 47.65112 | 22.62634 | 34137 ft | 428 kts | 321° |
| 2026-05-04 11:49 | 47.69604 | 22.56850 | 34132 ft | 427 kts | 321° |
| 2026-05-04 11:49 | 47.74091 | 22.51070 | 34123 ft | 427 kts | 321° |
| 2026-05-04 11:50 | 47.78586 | 22.45292 | 34108 ft | 427 kts | 323° |
| 2026-05-04 11:50 | 47.83546 | 22.40499 | 34103 ft | 425 kts | 330° |
| 2026-05-04 11:51 | 47.88613 | 22.35955 | 34106 ft | 426 kts | 330° |
| 2026-05-04 11:51 | 47.93684 | 22.31387 | 34109 ft | 426 kts | 330° |
| 2026-05-04 11:52 | 47.98754 | 22.26814 | 34108 ft | 426 kts | 330° |
| 2026-05-04 11:52 | 48.03821 | 22.22227 | 34104 ft | 426 kts | 330° |
| 2026-05-04 11:53 | 48.08888 | 22.17638 | 34112 ft | 426 kts | 329° |
| 2026-05-04 11:53 | 48.13953 | 22.13033 | 34115 ft | 426 kts | 329° |
| 2026-05-04 11:55 | 48.34189 | 21.94555 | 34105 ft | 425 kts | 329° |
| 2026-05-04 11:56 | 48.39239 | 21.89911 | 34110 ft | 425 kts | 329° |
| 2026-05-04 11:56 | 48.44282 | 21.85265 | 34110 ft | 425 kts | 329° |
| 2026-05-04 11:57 | 48.49328 | 21.80600 | 34107 ft | 425 kts | 329° |
| 2026-05-04 11:57 | 48.54363 | 21.75934 | 34104 ft | 425 kts | 329° |
| 2026-05-04 11:58 | 48.59395 | 21.71260 | 34107 ft | 425 kts | 329° |
| 2026-05-04 11:58 | 48.64423 | 21.66576 | 34099 ft | 425 kts | 329° |
| 2026-05-04 11:59 | 48.69452 | 21.61884 | 34093 ft | 425 kts | 329° |
| 2026-05-04 11:59 | 48.74480 | 21.57197 | 34088 ft | 424 kts | 329° |
| 2026-05-04 12:00 | 48.79501 | 21.52492 | 34090 ft | 425 kts | 329° |
| 2026-05-04 12:00 | 48.84524 | 21.47779 | 34088 ft | 425 kts | 329° |
| 2026-05-04 12:01 | 48.89517 | 21.43078 | 34093 ft | 425 kts | 329° |
| 2026-05-04 12:02 | 49.07034 | 21.26481 | 34077 ft | 424 kts | 329° |
| 2026-05-04 12:03 | 49.12034 | 21.21723 | 34065 ft | 423 kts | 329° |
| 2026-05-04 12:03 | 49.17021 | 21.16963 | 34079 ft | 422 kts | 329° |
| 2026-05-04 12:04 | 49.21987 | 21.12203 | 34067 ft | 421 kts | 328° |
| 2026-05-04 12:04 | 49.26953 | 21.07449 | 34063 ft | 421 kts | 329° |
| 2026-05-04 12:05 | 49.31916 | 21.02684 | 34059 ft | 421 kts | 329° |
| 2026-05-04 12:05 | 49.37228 | 20.99009 | 34058 ft | 419 kts | 340° |
| 2026-05-04 12:06 | 49.42709 | 20.95934 | 34041 ft | 419 kts | 339° |
| 2026-05-04 12:06 | 49.48190 | 20.92821 | 34036 ft | 420 kts | 339° |
| 2026-05-04 12:07 | 49.53670 | 20.89710 | 34026 ft | 420 kts | 339° |
| 2026-05-04 12:07 | 49.59163 | 20.86587 | 34028 ft | 421 kts | 339° |
| 2026-05-04 12:08 | 49.64659 | 20.83458 | 34025 ft | 421 kts | 339° |
| 2026-05-04 12:08 | 49.70153 | 20.80323 | 34028 ft | 421 kts | 339° |
| 2026-05-04 12:09 | 49.75652 | 20.77180 | 34031 ft | 421 kts | 339° |
| 2026-05-04 12:09 | 49.81153 | 20.74023 | 34017 ft | 422 kts | 339° |
| 2026-05-04 12:10 | 49.86651 | 20.70856 | 34012 ft | 422 kts | 339° |
| 2026-05-04 12:10 | 49.92158 | 20.67679 | 34015 ft | 422 kts | 339° |
| 2026-05-04 12:11 | 49.97639 | 20.64531 | 34022 ft | 423 kts | 339° |
| 2026-05-04 12:11 | 50.03155 | 20.61337 | 34020 ft | 423 kts | 339° |
| 2026-05-04 12:12 | 50.08669 | 20.58126 | 34016 ft | 423 kts | 339° |
| 2026-05-04 12:12 | 50.14185 | 20.54918 | 34009 ft | 423 kts | 338° |
| 2026-05-04 12:14 | 50.36322 | 20.41953 | 34014 ft | 426 kts | 338° |
| 2026-05-04 12:15 | 50.41868 | 20.38681 | 34011 ft | 426 kts | 338° |
| 2026-05-04 12:15 | 50.47420 | 20.35402 | 34017 ft | 426 kts | 338° |
| 2026-05-04 12:16 | 50.52975 | 20.32113 | 34020 ft | 427 kts | 338° |
| 2026-05-04 12:16 | 50.58538 | 20.28811 | 34012 ft | 427 kts | 338° |
| 2026-05-04 12:17 | 50.64100 | 20.25491 | 34004 ft | 428 kts | 337° |
| 2026-05-04 12:17 | 50.69724 | 20.22399 | 34007 ft | 429 kts | 340° |
| 2026-05-04 12:18 | 50.75431 | 20.19620 | 34009 ft | 429 kts | 341° |
| 2026-05-04 12:18 | 50.81136 | 20.16850 | 34008 ft | 429 kts | 340° |
| 2026-05-04 12:19 | 50.86834 | 20.13982 | 34001 ft | 430 kts | 340° |
| 2026-05-04 12:19 | 50.92527 | 20.11057 | 33991 ft | 431 kts | 340° |
| 2026-05-04 12:20 | 50.98203 | 20.08154 | 33990 ft | 432 kts | 340° |
| 2026-05-04 12:20 | 51.03966 | 20.05219 | 33996 ft | 433 kts | 340° |
| 2026-05-04 12:21 | 51.09664 | 20.02315 | 33992 ft | 433 kts | 340° |
| 2026-05-04 12:21 | 51.15402 | 19.99373 | 33985 ft | 433 kts | 340° |
| 2026-05-04 12:22 | 51.21136 | 19.96416 | 33977 ft | 433 kts | 339° |
| 2026-05-04 12:22 | 51.26878 | 19.93447 | 33980 ft | 433 kts | 339° |
| 2026-05-04 12:23 | 51.32617 | 19.90464 | 33984 ft | 434 kts | 339° |
| 2026-05-04 12:23 | 51.38373 | 19.87470 | 33976 ft | 435 kts | 339° |
| 2026-05-04 12:24 | 51.44133 | 19.84475 | 33975 ft | 436 kts | 339° |
| 2026-05-04 12:24 | 51.49897 | 19.81469 | 33969 ft | 436 kts | 339° |
| 2026-05-04 12:25 | 51.55664 | 19.78439 | 33975 ft | 436 kts | 339° |
| 2026-05-04 12:25 | 51.61432 | 19.75407 | 33978 ft | 436 kts | 339° |
| 2026-05-04 12:26 | 51.67204 | 19.72381 | 33973 ft | 436 kts | 339° |
| 2026-05-04 12:26 | 51.72977 | 19.69348 | 33973 ft | 436 kts | 338° |
| 2026-05-04 12:27 | 51.78742 | 19.66292 | 33974 ft | 436 kts | 338° |
| 2026-05-04 12:27 | 51.84527 | 19.63300 | 33970 ft | 437 kts | 339° |
| 2026-05-04 12:28 | 51.89369 | 19.60952 | 33967 ft | 437 kts | 340° |
| 2026-05-04 12:28 | 51.95200 | 19.58154 | 33966 ft | 437 kts | 339° |
| 2026-05-04 12:29 | 52.01025 | 19.55310 | 33966 ft | 437 kts | 339° |
| 2026-05-04 12:29 | 52.06842 | 19.52438 | 33959 ft | 437 kts | 339° |
| 2026-05-04 12:30 | 52.12660 | 19.49554 | 33964 ft | 437 kts | 339° |
| 2026-05-04 12:30 | 52.18480 | 19.46671 | 33960 ft | 437 kts | 339° |
| 2026-05-04 12:31 | 52.24298 | 19.43789 | 33961 ft | 437 kts | 339° |
| 2026-05-04 12:31 | 52.30112 | 19.40887 | 33961 ft | 437 kts | 339° |
| 2026-05-04 12:32 | 52.38833 | 19.36519 | 33960 ft | 437 kts | 339° |
| 2026-05-04 12:33 | 52.44647 | 19.33606 | 33972 ft | 437 kts | 339° |
| 2026-05-04 12:33 | 52.50451 | 19.30679 | 33966 ft | 436 kts | 339° |
| 2026-05-04 12:34 | 52.56257 | 19.27745 | 33978 ft | 436 kts | 338° |
| 2026-05-04 12:34 | 52.62056 | 19.24813 | 33973 ft | 436 kts | 338° |
| 2026-05-04 12:35 | 52.67850 | 19.21888 | 33976 ft | 435 kts | 338° |
| 2026-05-04 12:35 | 52.73637 | 19.18936 | 33960 ft | 435 kts | 338° |
| 2026-05-04 12:36 | 52.79423 | 19.15976 | 33952 ft | 435 kts | 338° |
| 2026-05-04 12:36 | 52.85204 | 19.13012 | 33945 ft | 435 kts | 338° |
| 2026-05-04 12:37 | 52.90990 | 19.10034 | 33943 ft | 435 kts | 338° |
| 2026-05-04 12:37 | 52.96772 | 19.07053 | 33975 ft | 435 kts | 337° |
| 2026-05-04 12:38 | 53.02560 | 19.04071 | 33961 ft | 435 kts | 337° |
| 2026-05-04 12:38 | 53.08344 | 19.01084 | 33940 ft | 435 kts | 337° |
| 2026-05-04 12:39 | 53.14122 | 18.98080 | 33933 ft | 435 kts | 337° |
| 2026-05-04 12:39 | 53.19865 | 18.95091 | 33930 ft | 436 kts | 337° |
| 2026-05-04 12:40 | 53.25652 | 18.92073 | 33943 ft | 435 kts | 337° |
| 2026-05-04 12:40 | 53.31436 | 18.89048 | 33939 ft | 435 kts | 337° |
| 2026-05-04 12:41 | 53.37212 | 18.86015 | 33933 ft | 435 kts | 337° |
| 2026-05-04 12:41 | 53.42984 | 18.82966 | 33949 ft | 434 kts | 336° |
| 2026-05-04 12:42 | 53.48743 | 18.79923 | 33939 ft | 433 kts | 336° |
| 2026-05-04 12:42 | 53.54385 | 18.76523 | 33952 ft | 428 kts | 330° |
| 2026-05-04 12:43 | 53.59854 | 18.72561 | 33937 ft | 428 kts | 330° |
| 2026-05-04 12:43 | 53.65311 | 18.68582 | 33933 ft | 427 kts | 330° |
| 2026-05-04 12:44 | 53.70772 | 18.64613 | 33926 ft | 427 kts | 330° |
| 2026-05-04 12:44 | 53.76224 | 18.60632 | 33919 ft | 427 kts | 330° |
| 2026-05-04 12:45 | 53.81682 | 18.56649 | 33940 ft | 427 kts | 329° |
| 2026-05-04 12:45 | 53.87126 | 18.52670 | 33914 ft | 425 kts | 329° |
| 2026-05-04 12:46 | 53.92551 | 18.48674 | 33907 ft | 425 kts | 329° |
| 2026-05-04 12:46 | 53.97974 | 18.44662 | 33914 ft | 425 kts | 329° |
| 2026-05-04 12:47 | 54.03400 | 18.40636 | 33917 ft | 426 kts | 329° |
| 2026-05-04 12:47 | 54.08833 | 18.36600 | 33923 ft | 426 kts | 329° |
| 2026-05-04 12:48 | 54.14272 | 18.32569 | 33930 ft | 426 kts | 329° |
| 2026-05-04 12:48 | 54.19706 | 18.28520 | 33960 ft | 426 kts | 328° |
| 2026-05-04 12:49 | 54.25131 | 18.24442 | 33943 ft | 426 kts | 328° |
| 2026-05-04 12:49 | 54.30559 | 18.20358 | 33939 ft | 426 kts | 328° |
| 2026-05-04 12:50 | 54.35985 | 18.16250 | 33933 ft | 426 kts | 328° |
| 2026-05-04 12:50 | 54.41397 | 18.12116 | 33925 ft | 426 kts | 328° |
| 2026-05-04 12:51 | 54.46802 | 18.07969 | 33938 ft | 426 kts | 327° |
| 2026-05-04 12:51 | 54.52212 | 18.03807 | 33936 ft | 426 kts | 327° |
| 2026-05-04 12:52 | 54.57619 | 17.99644 | 33940 ft | 425 kts | 327° |
| 2026-05-04 12:52 | 54.62977 | 17.95514 | 33925 ft | 425 kts | 327° |
| 2026-05-04 12:53 | 54.68367 | 17.91341 | 33922 ft | 425 kts | 327° |
| 2026-05-04 12:53 | 54.73760 | 17.87160 | 33919 ft | 425 kts | 327° |
| 2026-05-04 12:54 | 54.79155 | 17.82960 | 33913 ft | 426 kts | 327° |
| 2026-05-04 12:54 | 54.84552 | 17.78737 | 33917 ft | 425 kts | 327° |
| 2026-05-04 12:55 | 54.89911 | 17.74520 | 33921 ft | 425 kts | 327° |
| 2026-05-04 12:55 | 54.94960 | 17.70533 | 33921 ft | 425 kts | 327° |
| 2026-05-04 12:56 | 55.00033 | 17.66528 | 33939 ft | 425 kts | 327° |
| 2026-05-04 12:56 | 55.05421 | 17.62416 | 33955 ft | 426 kts | 327° |
| 2026-05-04 12:57 | 55.10861 | 17.58302 | 33922 ft | 425 kts | 327° |
| 2026-05-04 12:57 | 55.16280 | 17.54156 | 33907 ft | 425 kts | 327° |
| 2026-05-04 12:58 | 55.21700 | 17.49981 | 33901 ft | 426 kts | 327° |
| 2026-05-04 12:58 | 55.27097 | 17.45731 | 33892 ft | 425 kts | 326° |
| 2026-05-04 12:59 | 55.32473 | 17.41418 | 33892 ft | 425 kts | 326° |
| 2026-05-04 12:59 | 55.37846 | 17.37097 | 33931 ft | 425 kts | 326° |
| 2026-05-04 13:00 | 55.43197 | 17.32800 | 33898 ft | 425 kts | 326° |
| 2026-05-04 13:00 | 55.48621 | 17.28451 | 33884 ft | 426 kts | 326° |
| 2026-05-04 13:01 | 55.54016 | 17.24099 | 33876 ft | 426 kts | 326° |
| 2026-05-04 13:01 | 55.59413 | 17.19735 | 33874 ft | 426 kts | 326° |
| 2026-05-04 13:02 | 55.64782 | 17.15434 | 33892 ft | 428 kts | 328° |
| 2026-05-04 13:02 | 55.70383 | 17.11674 | 33893 ft | 432 kts | 332° |
| 2026-05-04 13:03 | 55.76084 | 17.08272 | 33891 ft | 432 kts | 332° |
| 2026-05-04 13:03 | 55.81753 | 17.04805 | 33877 ft | 430 kts | 331° |
| 2026-05-04 13:04 | 55.87376 | 17.01194 | 33870 ft | 429 kts | 330° |
| 2026-05-04 13:04 | 55.92976 | 16.97533 | 33856 ft | 428 kts | 330° |
| 2026-05-04 13:05 | 55.98580 | 16.93887 | 33880 ft | 429 kts | 330° |
| 2026-05-04 13:05 | 56.04189 | 16.90257 | 33852 ft | 429 kts | 330° |
| 2026-05-04 13:06 | 56.09797 | 16.86627 | 33844 ft | 428 kts | 330° |
| 2026-05-04 13:06 | 56.15399 | 16.82991 | 33829 ft | 428 kts | 330° |
| 2026-05-04 13:07 | 56.21003 | 16.79332 | 33828 ft | 428 kts | 330° |
| 2026-05-04 13:07 | 56.26606 | 16.75655 | 33843 ft | 429 kts | 331° |
| 2026-05-04 13:08 | 56.32218 | 16.71971 | 33826 ft | 429 kts | 331° |
| 2026-05-04 13:08 | 56.37827 | 16.68262 | 33812 ft | 429 kts | 330° |
| 2026-05-04 13:09 | 56.43439 | 16.64546 | 33811 ft | 430 kts | 331° |
| 2026-05-04 13:09 | 56.49053 | 16.60825 | 33802 ft | 430 kts | 331° |
| 2026-05-04 13:10 | 56.54668 | 16.57095 | 33830 ft | 430 kts | 331° |
| 2026-05-04 13:10 | 56.60288 | 16.53342 | 33804 ft | 430 kts | 331° |
| 2026-05-04 13:11 | 56.65912 | 16.49572 | 33805 ft | 431 kts | 331° |
| 2026-05-04 13:11 | 56.71547 | 16.45789 | 33817 ft | 432 kts | 332° |
| 2026-05-04 13:12 | 56.77159 | 16.42013 | 33812 ft | 433 kts | 332° |
| 2026-05-04 13:12 | 56.82808 | 16.38191 | 33807 ft | 433 kts | 332° |
| 2026-05-04 13:13 | 56.88464 | 16.34341 | 33823 ft | 434 kts | 332° |
| 2026-05-04 13:13 | 56.94119 | 16.30498 | 33807 ft | 434 kts | 332° |
| 2026-05-04 13:14 | 56.99771 | 16.26635 | 33781 ft | 433 kts | 332° |
| 2026-05-04 13:14 | 57.05419 | 16.22761 | 33773 ft | 433 kts | 332° |
| 2026-05-04 13:15 | 57.11062 | 16.18867 | 33767 ft | 433 kts | 332° |
| 2026-05-04 13:15 | 57.16705 | 16.14985 | 33820 ft | 433 kts | 333° |
| 2026-05-04 13:16 | 57.21394 | 16.11763 | 33809 ft | 433 kts | 332° |
| 2026-05-04 13:16 | 57.27026 | 16.07861 | 33786 ft | 432 kts | 332° |
| 2026-05-04 13:17 | 57.32652 | 16.03933 | 33775 ft | 432 kts | 332° |
| 2026-05-04 13:17 | 57.38268 | 15.99988 | 33765 ft | 432 kts | 332° |
| 2026-05-04 13:18 | 57.43895 | 15.96039 | 33762 ft | 432 kts | 332° |
| 2026-05-04 13:18 | 57.49523 | 15.92087 | 33781 ft | 433 kts | 332° |
| 2026-05-04 13:19 | 57.55154 | 15.88123 | 33774 ft | 433 kts | 332° |
| 2026-05-04 13:19 | 57.60790 | 15.84143 | 33769 ft | 433 kts | 332° |
| 2026-05-04 13:20 | 57.66419 | 15.80145 | 33767 ft | 433 kts | 332° |
| 2026-05-04 13:20 | 57.72040 | 15.76129 | 33678 ft | 433 kts | 332° |
| 2026-05-04 13:20 | 57.74845 | 15.74121 | 33394 ft | 431 kts | 332° |
| 2026-05-04 13:21 | 57.77649 | 15.72116 | 33123 ft | 431 kts | 332° |
| 2026-05-04 13:21 | 57.80456 | 15.70109 | 32854 ft | 432 kts | 332° |
| 2026-05-04 13:21 | 57.83260 | 15.68107 | 32589 ft | 431 kts | 332° |
| 2026-05-04 13:21 | 57.86057 | 15.66107 | 32318 ft | 429 kts | 332° |
| 2026-05-04 13:22 | 57.88839 | 15.64107 | 32045 ft | 427 kts | 332° |
| 2026-05-04 13:22 | 57.91609 | 15.62102 | 31793 ft | 425 kts | 332° |
| 2026-05-04 13:22 | 57.94359 | 15.60109 | 31523 ft | 422 kts | 332° |
| 2026-05-04 13:22 | 57.97100 | 15.58160 | 31030 ft | 421 kts | 335° |
| 2026-05-04 13:23 | 57.99948 | 15.56794 | 30513 ft | 426 kts | 344° |
| 2026-05-04 13:23 | 58.02903 | 15.56151 | 29979 ft | 427 kts | 347° |
| 2026-05-04 13:23 | 58.05812 | 15.55605 | 29399 ft | 425 kts | 347° |
| 2026-05-04 13:23 | 58.08734 | 15.55059 | 28908 ft | 420 kts | 347° |
| 2026-05-04 13:24 | 58.11634 | 15.54514 | 28332 ft | 417 kts | 347° |
| 2026-05-04 13:24 | 58.14505 | 15.53964 | 27837 ft | 413 kts | 347° |
| 2026-05-04 13:24 | 58.17349 | 15.53412 | 27333 ft | 409 kts | 347° |
| 2026-05-04 13:25 | 58.22945 | 15.52320 | 26353 ft | 400 kts | 347° |
| 2026-05-04 13:25 | 58.25706 | 15.51787 | 25879 ft | 396 kts | 347° |
| 2026-05-04 13:25 | 58.28470 | 15.51255 | 25424 ft | 392 kts | 347° |
| 2026-05-04 13:25 | 58.31136 | 15.50736 | 24981 ft | 389 kts | 347° |
| 2026-05-04 13:26 | 58.33812 | 15.50213 | 24533 ft | 385 kts | 346° |
| 2026-05-04 13:26 | 58.36459 | 15.49692 | 24109 ft | 381 kts | 346° |
| 2026-05-04 13:26 | 58.39120 | 15.49169 | 23684 ft | 378 kts | 346° |
| 2026-05-04 13:26 | 58.41694 | 15.48663 | 23207 ft | 376 kts | 346° |
| 2026-05-04 13:27 | 58.44285 | 15.48158 | 22724 ft | 372 kts | 346° |
| 2026-05-04 13:27 | 58.46846 | 15.47661 | 22289 ft | 368 kts | 346° |
| 2026-05-04 13:27 | 58.49378 | 15.47170 | 21852 ft | 364 kts | 346° |
| 2026-05-04 13:27 | 58.51886 | 15.46676 | 21408 ft | 361 kts | 346° |
| 2026-05-04 13:28 | 58.54370 | 15.46180 | 20968 ft | 358 kts | 346° |
| 2026-05-04 13:28 | 58.56838 | 15.45689 | 20512 ft | 355 kts | 346° |
| 2026-05-04 13:28 | 58.59290 | 15.45203 | 20075 ft | 353 kts | 346° |
| 2026-05-04 13:28 | 58.61726 | 15.44722 | 19639 ft | 351 kts | 346° |
| 2026-05-04 13:29 | 58.64152 | 15.44245 | 19187 ft | 349 kts | 346° |
| 2026-05-04 13:29 | 58.66565 | 15.43769 | 18747 ft | 348 kts | 346° |
| 2026-05-04 13:29 | 58.68970 | 15.43297 | 18321 ft | 347 kts | 346° |
| 2026-05-04 13:29 | 58.71372 | 15.42823 | 17841 ft | 347 kts | 346° |
| 2026-05-04 13:30 | 58.73767 | 15.42342 | 17374 ft | 344 kts | 346° |
| 2026-05-04 13:30 | 58.76137 | 15.41864 | 16955 ft | 342 kts | 346° |
| 2026-05-04 13:30 | 58.78494 | 15.41393 | 16532 ft | 339 kts | 346° |
| 2026-05-04 13:30 | 58.80829 | 15.40930 | 16115 ft | 336 kts | 346° |
| 2026-05-04 13:31 | 58.83150 | 15.40470 | 15698 ft | 334 kts | 346° |
| 2026-05-04 13:31 | 58.85452 | 15.40011 | 15287 ft | 332 kts | 346° |
| 2026-05-04 13:31 | 58.87742 | 15.39549 | 14880 ft | 330 kts | 346° |
| 2026-05-04 13:31 | 58.90020 | 15.39089 | 14471 ft | 328 kts | 346° |
| 2026-05-04 13:32 | 58.92289 | 15.38633 | 14080 ft | 327 kts | 346° |
| 2026-05-04 13:32 | 58.94542 | 15.38182 | 13668 ft | 325 kts | 346° |
| 2026-05-04 13:32 | 58.96785 | 15.37728 | 13216 ft | 324 kts | 346° |
| 2026-05-04 13:32 | 58.99021 | 15.37278 | 12807 ft | 322 kts | 346° |
| 2026-05-04 13:33 | 59.01243 | 15.36834 | 12383 ft | 320 kts | 346° |
| 2026-05-04 13:33 | 59.03446 | 15.36391 | 11959 ft | 317 kts | 346° |
| 2026-05-04 13:33 | 59.05633 | 15.35945 | 11557 ft | 315 kts | 346° |
| 2026-05-04 13:33 | 59.07809 | 15.35502 | 11157 ft | 313 kts | 346° |
| 2026-05-04 13:34 | 59.09945 | 15.35065 | 10767 ft | 311 kts | 346° |
| 2026-05-04 13:34 | 59.12092 | 15.34620 | 10360 ft | 310 kts | 346° |
| 2026-05-04 13:34 | 59.14230 | 15.34176 | 9961 ft | 308 kts | 347° |
| 2026-05-04 13:34 | 59.16322 | 15.33757 | 9827 ft | 296 kts | 347° |
| 2026-05-04 13:35 | 59.18339 | 15.33362 | 9626 ft | 288 kts | 346° |
| 2026-05-04 13:35 | 59.22279 | 15.32557 | 8930 ft | 284 kts | 346° |
| 2026-05-04 13:35 | 59.24248 | 15.32144 | 8484 ft | 284 kts | 347° |
| 2026-05-04 13:36 | 59.26206 | 15.31740 | 8061 ft | 284 kts | 347° |
| 2026-05-04 13:36 | 59.28154 | 15.31338 | 7787 ft | 279 kts | 348° |
| 2026-05-04 13:36 | 59.30067 | 15.30956 | 7714 ft | 275 kts | 348° |
| 2026-05-04 13:36 | 59.31976 | 15.30568 | 7714 ft | 276 kts | 347° |
| 2026-05-04 13:37 | 59.33885 | 15.30169 | 7722 ft | 276 kts | 347° |
| 2026-05-04 13:37 | 59.35797 | 15.29764 | 7639 ft | 277 kts | 347° |
| 2026-05-04 13:37 | 59.37711 | 15.29356 | 7162 ft | 277 kts | 348° |
| 2026-05-04 13:37 | 59.38967 | 15.29091 | 7048 ft | 271 kts | 348° |
| 2026-05-04 13:38 | 59.41408 | 15.28581 | 6870 ft | 256 kts | 347° |
| 2026-05-04 13:38 | 59.43144 | 15.28234 | 6764 ft | 245 kts | 348° |
| 2026-05-04 13:38 | 59.44819 | 15.27909 | 6517 ft | 240 kts | 348° |
| 2026-05-04 13:38 | 59.46470 | 15.27583 | 6240 ft | 236 kts | 348° |
| 2026-05-04 13:39 | 59.48095 | 15.27246 | 5847 ft | 234 kts | 347° |
| 2026-05-04 13:39 | 59.49621 | 15.26395 | 5441 ft | 224 kts | 325° |
| 2026-05-04 13:39 | 59.50752 | 15.24444 | 5010 ft | 213 kts | 301° |
| 2026-05-04 13:39 | 59.51320 | 15.21815 | 4599 ft | 209 kts | 278° |
| 2026-05-04 13:40 | 59.51278 | 15.18986 | 4249 ft | 206 kts | 257° |
| 2026-05-04 13:40 | 59.50641 | 15.16470 | 3906 ft | 207 kts | 233° |
| 2026-05-04 13:40 | 59.49534 | 15.14710 | 3756 ft | 204 kts | 211° |
| 2026-05-04 13:40 | 59.48186 | 15.13954 | 3623 ft | 202 kts | 194° |
| 2026-05-04 13:41 | 59.46800 | 15.13501 | 3510 ft | 202 kts | 195° |
| 2026-05-04 13:41 | 59.45409 | 15.13036 | 3409 ft | 202 kts | 195° |
| 2026-05-04 13:41 | 59.44021 | 15.12575 | 3304 ft | 202 kts | 195° |
| 2026-05-04 13:42 | 59.41295 | 15.11523 | 3077 ft | 200 kts | 198° |
| 2026-05-04 13:42 | 59.39941 | 15.10954 | 2969 ft | 195 kts | 198° |
| 2026-05-04 13:42 | 59.38665 | 15.10438 | 2854 ft | 182 kts | 198° |
| 2026-05-04 13:42 | 59.37439 | 15.09942 | 2726 ft | 178 kts | 198° |
| 2026-05-04 13:43 | 59.36276 | 15.09476 | 2643 ft | 164 kts | 198° |
| 2026-05-04 13:43 | 59.35186 | 15.09032 | 2571 ft | 158 kts | 200° |
| 2026-05-04 13:43 | 59.34111 | 15.08587 | 2318 ft | 156 kts | 199° |
| 2026-05-04 13:43 | 59.33053 | 15.08152 | 2094 ft | 155 kts | 199° |
| 2026-05-04 13:44 | 59.32003 | 15.07723 | 1877 ft | 153 kts | 199° |
| 2026-05-04 13:44 | 59.30980 | 15.07308 | 1678 ft | 149 kts | 199° |
| 2026-05-04 13:44 | 59.29968 | 15.06893 | 1459 ft | 147 kts | 198° |
| 2026-05-04 13:44 | 59.28974 | 15.06488 | 1299 ft | 142 kts | 199° |
| 2026-05-04 13:45 | 59.28036 | 15.06117 | 1081 ft | 136 kts | 201° |
| 2026-05-04 13:45 | 59.27110 | 15.05726 | 860 ft | 134 kts | 199° |
| 2026-05-04 13:45 | 59.26203 | 15.05336 | 723 ft | 134 kts | 195° |
| 2026-05-04 13:45 | 59.25278 | 15.04993 | 564 ft | 134 kts | 198° |
| 2026-05-04 13:46 | 59.24373 | 15.04604 | 392 ft | 133 kts | 198° |
| 2026-05-04 13:46 | 59.23473 | 15.04243 | 212 ft | 131 kts | 196° |
| 2026-05-04 13:46 | 59.22684 | 15.03910 | 183 ft | 90 kts | 192° |
| 2026-05-04 13:46 | 59.22269 | 15.03745 | 184 ft | 31 kts | 194° |
| 2026-05-04 13:47 | 59.22179 | 15.03695 | 197 ft | 7 kts | 163° |
| 2026-05-04 13:47 | 59.22191 | 15.03755 | 197 ft | 7 kts | 21° |
| 2026-05-04 13:47 | 59.22251 | 15.03770 | 191 ft | 11 kts | 6° |
| 2026-05-04 13:47 | 59.22316 | 15.03781 | 192 ft | 8 kts | 6° |
| 2026-05-04 13:48 | 59.22399 | 15.03807 | 187 ft | 15 kts | 11° |
| 2026-05-04 13:48 | 59.22497 | 15.03843 | 186 ft | 14 kts | 11° |
| 2026-05-04 13:48 | 59.22593 | 15.03882 | 184 ft | 15 kts | 12° |
| 2026-05-04 13:48 | 59.22693 | 15.03923 | 183 ft | 14 kts | 12° |
| 2026-05-04 13:49 | 59.22778 | 15.03977 | 183 ft | 12 kts | 45° |
| 2026-05-04 13:49 | 59.22782 | 15.04122 | 185 ft | 10 kts | 102° |
| 2026-05-04 13:49 | 59.22770 | 15.04236 | 189 ft | 8 kts | 102° |
| 2026-05-04 13:49 | 59.22759 | 15.04351 | 196 ft | 8 kts | 92° |
| 2026-05-04 13:50 | 59.22767 | 15.04456 | 191 ft | 7 kts | 94° |
| 2026-05-04 13:50 | 59.22747 | 15.04506 | 185 ft | 0 kts | 140° |